createdAt,value
2022-09-06T00:00:17.903Z,39.80
2022-09-06T00:02:46.186Z,39.80
2022-09-06T00:05:13.997Z,39.80
2022-09-06T00:07:41.525Z,39.90
2022-09-06T00:10:10.089Z,39.90
2022-09-06T00:12:38.339Z,40.00
2022-09-06T00:15:06.632Z,40.00
2022-09-06T00:17:34.487Z,40.20
2022-09-06T00:20:02.999Z,40.20
2022-09-06T00:22:29.898Z,40.20
2022-09-06T00:24:57.186Z,40.20
2022-09-06T00:27:24.188Z,40.80
2022-09-06T00:29:51.365Z,40.20
2022-09-06T00:32:18.417Z,40.40
2022-09-06T00:34:45.650Z,40.30
2022-09-06T00:37:12.566Z,40.30
2022-09-06T00:39:39.631Z,40.30
2022-09-06T00:42:11.504Z,40.30
2022-09-06T00:44:38.996Z,40.40
2022-09-06T00:47:08.482Z,40.30
2022-09-06T00:49:41.628Z,40.40
2022-09-06T00:52:14.052Z,40.40
2022-09-06T00:54:41.939Z,40.50
2022-09-06T00:57:10.605Z,40.50
2022-09-06T00:59:39.664Z,40.50
2022-09-06T01:02:09.250Z,40.50
2022-09-06T01:04:39.520Z,40.60
2022-09-06T01:07:27.474Z,40.70
2022-09-06T01:10:35.773Z,40.80
2022-09-06T01:13:42.230Z,40.80
2022-09-06T01:16:33.016Z,40.80
2022-09-06T01:19:19.755Z,40.70
2022-09-06T01:22:14.603Z,40.80
2022-09-06T01:25:02.389Z,41.00
2022-09-06T01:28:16.643Z,40.90
2022-09-06T01:31:00.810Z,41.00
2022-09-06T01:34:05.939Z,41.00
2022-09-06T01:37:09.994Z,41.20
2022-09-06T01:39:40.615Z,41.20
2022-09-06T01:42:12.549Z,41.10
2022-09-06T01:44:45.138Z,41.20
2022-09-06T01:47:21.038Z,41.30
2022-09-06T01:50:12.715Z,41.20
2022-09-06T01:53:43.953Z,41.40
2022-09-06T01:56:45.501Z,41.50
2022-09-06T01:59:35.589Z,41.30
2022-09-06T02:02:23.021Z,41.30
2022-09-06T02:05:06.563Z,41.30
2022-09-06T02:07:36.817Z,41.20
2022-09-06T02:10:16.426Z,41.30
2022-09-06T02:12:48.599Z,41.40
2022-09-06T02:15:22.538Z,41.50
2022-09-06T02:18:06.853Z,41.50
2022-09-06T02:20:39.166Z,41.60
2022-09-06T02:23:08.539Z,41.60
2022-09-06T02:25:40.509Z,41.70
2022-09-06T02:28:09.191Z,41.80
2022-09-06T02:30:43.015Z,41.90
2022-09-06T02:33:17.613Z,42.00
2022-09-06T02:35:51.557Z,42.10
2022-09-06T02:38:21.348Z,42.20
2022-09-06T02:40:50.322Z,42.40
2022-09-06T02:43:17.666Z,42.50
2022-09-06T02:45:44.730Z,42.70
2022-09-06T02:48:11.725Z,42.80
2022-09-06T02:50:38.781Z,42.90
2022-09-06T02:53:09.965Z,43.10
2022-09-06T02:55:38.258Z,43.30
2022-09-06T02:58:09.990Z,43.40
2022-09-06T03:00:37.412Z,43.50
2022-09-06T03:03:05.336Z,43.60
2022-09-06T03:05:32.416Z,43.70
2022-09-06T03:08:00.047Z,43.70
2022-09-06T03:10:27.070Z,43.80
2022-09-06T03:12:54.050Z,43.80
2022-09-06T03:15:21.776Z,43.90
2022-09-06T03:17:48.724Z,44.10
2022-09-06T03:20:16.070Z,44.20
2022-09-06T03:22:43.341Z,44.30
2022-09-06T03:25:11.182Z,44.40
2022-09-06T03:27:38.522Z,44.50
2022-09-06T03:30:06.678Z,44.60
2022-09-06T03:32:33.979Z,44.70
2022-09-06T03:35:01.098Z,44.90
2022-09-06T03:37:28.167Z,44.90
2022-09-06T03:39:55.365Z,45.00
2022-09-06T03:42:22.559Z,45.20
2022-09-06T03:44:51.042Z,45.10
2022-09-06T03:47:19.728Z,45.30
2022-09-06T03:49:48.404Z,45.30
2022-09-06T03:52:15.483Z,45.40
2022-09-06T03:54:42.551Z,45.40
2022-09-06T03:57:10.460Z,45.50
2022-09-06T03:59:37.500Z,45.60
2022-09-06T04:02:04.543Z,45.80
2022-09-06T04:04:32.065Z,45.80
2022-09-06T04:06:59.011Z,45.70
2022-09-06T04:09:26.232Z,46.50
2022-09-06T04:11:53.211Z,46.00
2022-09-06T04:14:20.502Z,46.10
2022-09-06T04:16:47.789Z,46.10
2022-09-06T04:19:14.807Z,46.30
2022-09-06T04:21:41.761Z,46.30
2022-09-06T04:24:08.898Z,46.30
2022-09-06T04:26:36.033Z,46.40
2022-09-06T04:29:03.918Z,46.40
2022-09-06T04:31:31.371Z,46.50
2022-09-06T04:33:58.365Z,46.60
2022-09-06T04:36:25.337Z,46.70
2022-09-06T04:38:52.458Z,46.80
2022-09-06T04:41:19.809Z,46.80
2022-09-06T04:43:46.744Z,46.80
2022-09-06T04:46:25.246Z,46.90
2022-09-06T04:48:54.340Z,47.20
2022-09-06T04:51:22.265Z,47.20
2022-09-06T04:53:50.280Z,47.20
2022-09-06T04:56:23.651Z,47.30
2022-09-06T04:58:52.788Z,47.50
2022-09-06T05:04:10.956Z,47.50
2022-09-06T05:06:41.631Z,47.50
2022-09-06T05:09:09.243Z,47.70
2022-09-06T05:11:36.283Z,47.70
2022-09-06T05:14:03.218Z,47.70
2022-09-06T05:16:30.365Z,47.80
2022-09-06T05:18:57.493Z,47.90
2022-09-06T05:21:24.648Z,47.90
2022-09-06T05:23:55.391Z,48.00
2022-09-06T05:26:24.956Z,47.80
2022-09-06T05:28:51.940Z,47.90
2022-09-06T05:31:33.839Z,47.80
2022-09-06T05:34:00.935Z,47.90
2022-09-06T05:36:29.777Z,47.80
2022-09-06T05:38:57.767Z,47.90
2022-09-06T05:41:25.562Z,47.80
2022-09-06T05:43:52.657Z,47.70
2022-09-06T05:46:20.108Z,47.70
2022-09-06T05:49:04.713Z,47.60
2022-09-06T05:51:32.848Z,47.70
2022-09-06T05:54:00.072Z,47.50
2022-09-06T05:56:27.353Z,47.40
2022-09-06T05:58:54.306Z,47.40
2022-09-06T06:01:27.471Z,47.20
2022-09-06T06:04:03.871Z,47.10
2022-09-06T06:06:34.857Z,47.00
2022-09-06T06:09:02.066Z,46.90
2022-09-06T06:11:31.157Z,46.80
2022-09-06T06:13:58.928Z,46.70
2022-09-06T06:16:26.104Z,46.60
2022-09-06T06:18:53.110Z,46.60
2022-09-06T06:21:26.665Z,46.50
2022-09-06T06:24:04.581Z,46.30
2022-09-06T06:26:35.779Z,46.30
2022-09-06T06:29:03.623Z,46.10
2022-09-06T06:31:33.317Z,45.80
2022-09-06T06:34:04.207Z,45.80
2022-09-06T06:36:34.983Z,45.60
2022-09-06T06:39:05.230Z,45.40
2022-09-06T06:41:33.320Z,45.30
2022-09-06T06:44:03.389Z,45.20
2022-09-06T06:46:33.923Z,45.10
2022-09-06T06:49:01.226Z,45.60
2022-09-06T06:51:32.448Z,44.90
2022-09-06T06:53:59.946Z,44.60
2022-09-06T06:56:34.561Z,44.40
2022-09-06T06:59:05.019Z,44.10
2022-09-06T07:01:34.275Z,44.20
2022-09-06T07:04:01.404Z,43.70
2022-09-06T07:09:18.646Z,43.10
2022-09-06T07:11:46.717Z,43.00
2022-09-06T07:14:13.769Z,42.80
2022-09-06T07:16:40.860Z,42.70
2022-09-06T07:19:08.115Z,42.80
2022-09-06T07:24:08.615Z,42.10
2022-09-06T07:26:39.044Z,41.80
2022-09-06T07:29:08.103Z,41.50
2022-09-06T07:34:25.993Z,40.90
2022-09-06T07:36:54.729Z,40.80
2022-09-06T07:39:22.775Z,40.10
2022-09-06T07:41:50.164Z,39.60
2022-09-06T07:44:17.185Z,39.10
2022-09-06T07:46:44.275Z,38.70
2022-09-06T07:49:11.552Z,38.30
2022-09-06T07:51:38.798Z,37.80
2022-09-06T07:54:28.916Z,37.50
2022-09-06T07:56:54.189Z,37.00
2022-09-06T07:59:21.195Z,36.90
2022-09-06T08:01:48.963Z,36.50
2022-09-06T08:04:16.005Z,36.20
2022-09-06T08:09:37.997Z,35.20
2022-09-06T08:12:08.820Z,35.20
2022-09-06T08:14:36.113Z,34.60
2022-09-06T08:17:03.964Z,34.50
2022-09-06T08:19:31.589Z,34.00
2022-09-06T08:21:58.545Z,33.70
2022-09-06T08:24:25.942Z,33.50
2022-09-06T08:26:52.901Z,33.10
2022-09-06T08:29:20.147Z,32.90
2022-09-06T08:31:47.587Z,32.70
2022-09-06T08:34:15.871Z,32.50
2022-09-06T08:36:45.322Z,32.50
2022-09-06T08:39:12.699Z,32.50
2022-09-06T08:41:57.568Z,32.50
2022-09-06T08:44:58.652Z,32.40
2022-09-06T08:47:26.165Z,32.60
2022-09-06T08:50:10.529Z,32.90
2022-09-06T08:53:16.244Z,32.30
2022-09-06T08:56:15.817Z,31.90
2022-09-06T08:59:12.611Z,31.90
2022-09-06T09:02:12.307Z,31.90
2022-09-06T09:04:50.996Z,31.40
2022-09-06T09:07:43.627Z,31.60
2022-09-06T09:10:28.441Z,31.40
2022-09-06T09:12:55.755Z,30.70
2022-09-06T09:15:23.031Z,30.50
2022-09-06T09:17:51.833Z,30.20
2022-09-06T09:20:19.076Z,30.10
2022-09-06T09:22:46.707Z,30.10
2022-09-06T09:25:22.827Z,30.00
2022-09-06T09:27:57.866Z,29.70
2022-09-06T09:33:39.296Z,29.40
2022-09-06T09:36:11.698Z,28.80
2022-09-06T09:38:49.341Z,29.00
2022-09-06T09:41:33.603Z,28.80
2022-09-06T09:44:15.799Z,28.40
2022-09-06T09:46:43.513Z,28.60
2022-09-06T09:49:35.701Z,28.60
2022-09-06T09:52:07.186Z,28.40
2022-09-06T09:54:40.246Z,28.20
2022-09-06T09:57:14.908Z,28.10
2022-09-06T10:00:03.700Z,27.90
2022-09-06T10:02:35.693Z,27.70
2022-09-06T10:05:13.184Z,27.70
2022-09-06T10:07:51.741Z,27.80
2022-09-06T10:10:26.415Z,27.70
2022-09-06T10:13:19.709Z,27.90
2022-09-06T10:15:48.328Z,27.90
2022-09-06T10:18:32.603Z,28.20
2022-09-06T10:21:13.059Z,28.00
2022-09-06T10:26:53.640Z,28.30
2022-09-06T10:29:53.205Z,28.50
2022-09-06T10:32:48.310Z,28.60
2022-09-06T10:35:35.344Z,28.30
2022-09-06T10:38:39.484Z,28.80
2022-09-06T10:41:40.134Z,28.30
2022-09-06T10:44:57.736Z,28.40
2022-09-06T10:47:53.452Z,28.70
2022-09-06T10:50:22.573Z,28.80
2022-09-06T10:52:52.884Z,29.10
2022-09-06T10:55:20.127Z,29.30
2022-09-06T10:58:18.031Z,29.50
2022-09-06T11:00:48.471Z,29.80
2022-09-06T11:03:57.009Z,29.90
2022-09-06T11:06:33.161Z,30.00
2022-09-06T11:09:29.444Z,30.00
2022-09-06T11:12:05.165Z,30.00
2022-09-06T11:14:34.180Z,30.00
2022-09-06T11:17:12.132Z,30.00
2022-09-06T11:19:56.213Z,30.00
2022-09-06T11:23:11.097Z,30.00
2022-09-06T11:26:22.489Z,30.00
2022-09-06T11:29:01.617Z,30.10
2022-09-06T11:34:31.933Z,30.00
2022-09-06T11:37:07.308Z,29.60
2022-09-06T11:42:45.246Z,29.10
2022-09-06T11:45:16.168Z,29.10
2022-09-06T11:47:46.871Z,29.00
2022-09-06T11:50:29.147Z,29.00
2022-09-06T11:53:12.785Z,29.30
2022-09-06T11:55:59.930Z,29.40
2022-09-06T11:58:44.271Z,29.30
2022-09-06T12:01:18.688Z,29.40
2022-09-06T12:04:08.493Z,29.30
2022-09-06T12:07:11.227Z,29.30
2022-09-06T12:09:42.503Z,29.40
2022-09-06T12:12:16.173Z,29.50
2022-09-06T12:14:48.348Z,29.60
2022-09-06T12:17:16.656Z,29.60
2022-09-06T12:19:49.395Z,29.70
2022-09-06T12:22:32.727Z,29.80
2022-09-06T12:25:33.813Z,30.00
2022-09-06T12:28:06.212Z,30.30
2022-09-06T12:30:48.044Z,30.40
2022-09-06T12:33:31.057Z,30.80
2022-09-06T12:36:20.068Z,30.80
2022-09-06T12:39:00.372Z,31.00
2022-09-06T12:41:31.739Z,30.90
2022-09-06T12:44:00.676Z,30.80
2022-09-06T12:46:31.186Z,31.00
2022-09-06T12:49:11.503Z,30.90
2022-09-06T12:51:40.810Z,31.00
2022-09-06T12:54:50.052Z,31.10
2022-09-06T12:57:23.425Z,31.30
2022-09-06T12:59:57.515Z,31.20
2022-09-06T13:02:43.687Z,31.30
2022-09-06T13:05:12.395Z,31.40
2022-09-06T13:07:45.624Z,31.30
2022-09-06T13:10:19.767Z,31.10
2022-09-06T13:12:51.020Z,30.90
2022-09-06T13:15:19.886Z,30.70
2022-09-06T13:17:47.120Z,30.70
2022-09-06T13:20:30.654Z,30.80
2022-09-06T13:23:13.097Z,30.40
2022-09-06T13:25:55.094Z,30.30
2022-09-06T13:28:30.889Z,30.20
2022-09-06T13:31:20.033Z,30.00
2022-09-06T13:33:59.219Z,29.90
2022-09-06T13:36:31.064Z,29.90
2022-09-06T13:39:00.163Z,29.90
2022-09-06T13:41:27.635Z,29.80
2022-09-06T13:44:19.691Z,29.80
2022-09-06T13:46:47.170Z,29.90
2022-09-06T13:49:14.441Z,29.80
2022-09-06T13:51:43.369Z,29.90
2022-09-06T13:54:15.676Z,29.90
2022-09-06T13:56:48.584Z,30.00
2022-09-06T13:59:17.112Z,30.00
2022-09-06T14:01:47.640Z,30.00
2022-09-06T14:04:20.081Z,30.10
2022-09-06T14:06:48.885Z,30.10
2022-09-06T14:09:15.995Z,30.00
2022-09-06T14:11:48.003Z,30.00
2022-09-06T14:14:17.805Z,29.60
2022-09-06T14:16:46.301Z,29.20
2022-09-06T14:19:14.202Z,29.10
2022-09-06T14:21:41.404Z,29.00
2022-09-06T14:24:08.397Z,28.80
2022-09-06T14:26:37.331Z,28.40
2022-09-06T14:29:04.624Z,28.00
2022-09-06T14:31:32.820Z,27.60
2022-09-06T14:34:00.901Z,27.10
2022-09-06T14:36:30.033Z,26.90
2022-09-06T14:38:59.421Z,26.70
2022-09-06T14:41:27.587Z,26.80
2022-09-06T14:43:57.753Z,26.90
2022-09-06T14:46:27.926Z,26.90
2022-09-06T14:49:21.614Z,26.90
2022-09-06T14:51:48.951Z,26.70
2022-09-06T14:54:15.930Z,26.90
2022-09-06T14:56:44.313Z,26.80
2022-09-06T14:59:12.375Z,26.70
2022-09-06T15:01:41.032Z,26.60
2022-09-06T15:04:11.815Z,26.60
2022-09-06T15:06:40.778Z,26.60
2022-09-06T15:09:08.411Z,26.70
2022-09-06T15:11:40.091Z,26.60
2022-09-06T15:14:23.116Z,26.50
2022-09-06T15:16:55.891Z,26.50
2022-09-06T15:19:25.024Z,26.40
2022-09-06T15:21:52.256Z,26.10
2022-09-06T15:24:20.692Z,25.80
2022-09-06T15:26:48.594Z,25.50
2022-09-06T15:29:16.497Z,25.30
2022-09-06T15:31:48.320Z,25.10
2022-09-06T15:34:16.962Z,24.90
2022-09-06T15:36:44.155Z,25.00
2022-09-06T15:39:11.251Z,25.20
2022-09-06T15:41:40.582Z,25.20
2022-09-06T15:44:19.004Z,25.50
2022-09-06T15:46:49.975Z,25.70
2022-09-06T15:49:31.350Z,25.90
2022-09-06T15:52:01.028Z,26.10
2022-09-06T15:54:47.815Z,26.30
2022-09-06T15:57:17.305Z,26.60
2022-09-06T15:59:44.910Z,26.90
2022-09-06T16:02:12.970Z,27.30
2022-09-06T16:04:40.269Z,27.50
2022-09-06T16:07:07.555Z,27.80
2022-09-06T16:09:34.723Z,28.00
2022-09-06T16:12:01.655Z,28.20
2022-09-06T16:14:28.859Z,28.50
2022-09-06T16:16:57.170Z,28.70
2022-09-06T16:19:25.911Z,28.70
2022-09-06T16:21:52.928Z,28.80
2022-09-06T16:24:21.562Z,28.90
2022-09-06T16:26:48.789Z,29.10
2022-09-06T16:29:18.455Z,29.40
2022-09-06T16:31:46.389Z,29.50
2022-09-06T16:34:14.453Z,29.60
2022-09-06T16:36:42.066Z,29.70
2022-09-06T16:39:10.022Z,30.00
2022-09-06T16:41:42.352Z,30.00
2022-09-06T16:44:16.752Z,30.20
2022-09-06T16:46:49.620Z,30.40
2022-09-06T16:49:17.678Z,30.70
2022-09-06T16:51:46.122Z,30.90
2022-09-06T16:54:15.643Z,31.10
2022-09-06T16:56:43.064Z,31.10
2022-09-06T16:59:11.565Z,31.50
2022-09-06T17:01:43.681Z,31.50
2022-09-06T17:04:12.602Z,31.70
2022-09-06T17:06:44.816Z,31.90
2022-09-06T17:09:19.608Z,32.10
2022-09-06T17:11:49.761Z,32.40
2022-09-06T17:14:17.373Z,32.50
2022-09-06T17:17:02.788Z,32.50
2022-09-06T17:19:30.483Z,32.90
2022-09-06T17:21:57.893Z,32.80
2022-09-06T17:24:26.840Z,33.50
2022-09-06T17:26:54.065Z,32.90
2022-09-06T17:29:21.403Z,33.20
2022-09-06T17:31:49.746Z,33.30
2022-09-06T17:34:16.750Z,33.20
2022-09-06T17:36:43.795Z,33.40
2022-09-06T17:39:23.157Z,33.50
2022-09-06T17:41:54.374Z,33.90
2022-09-06T17:44:26.553Z,33.80
2022-09-06T17:49:42.760Z,33.90
2022-09-06T17:52:10.552Z,34.10
2022-09-06T17:54:37.615Z,34.20
2022-09-06T17:57:05.120Z,34.40
2022-09-06T17:59:35.426Z,34.50
2022-09-06T18:02:04.400Z,34.60
2022-09-06T18:04:31.571Z,34.80
2022-09-06T18:06:58.701Z,34.80
2022-09-06T18:09:25.541Z,35.10
2022-09-06T18:11:52.682Z,35.10
2022-09-06T18:14:23.106Z,35.30
2022-09-06T18:16:52.371Z,35.40
2022-09-06T18:19:19.432Z,35.60
2022-09-06T18:21:47.568Z,35.60
2022-09-06T18:24:15.303Z,35.70
2022-09-06T18:26:43.001Z,35.80
2022-09-06T18:29:16.647Z,35.90
2022-09-06T18:31:44.358Z,36.20
2022-09-06T18:34:12.632Z,36.20
2022-09-06T18:36:39.958Z,36.20
2022-09-06T18:39:07.102Z,36.20
2022-09-06T18:41:53.533Z,36.30
2022-09-06T18:44:21.499Z,36.50
2022-09-06T18:46:48.976Z,36.50
2022-09-06T18:49:17.109Z,36.80
2022-09-06T18:51:45.141Z,37.00
2022-09-06T18:54:12.466Z,37.00
2022-09-06T18:56:40.606Z,37.10
2022-09-06T18:59:07.937Z,37.20
2022-09-06T19:01:35.433Z,37.30
2022-09-06T19:04:03.879Z,37.40
2022-09-06T19:06:33.618Z,37.40
2022-09-06T19:09:07.552Z,37.50
2022-09-06T19:11:35.675Z,37.50
2022-09-06T19:14:04.090Z,37.50
2022-09-06T19:16:31.658Z,37.70
2022-09-06T19:19:07.875Z,37.80
2022-09-06T19:21:39.401Z,37.90
2022-09-06T19:24:11.059Z,37.90
2022-09-06T19:26:42.583Z,37.80
2022-09-06T19:29:15.715Z,37.90
2022-09-06T19:31:43.310Z,38.20
2022-09-06T19:34:12.274Z,38.10
2022-09-06T19:36:39.510Z,38.40
2022-09-06T19:39:10.271Z,38.40
2022-09-06T19:41:40.397Z,38.50
2022-09-06T19:44:09.131Z,38.60
2022-09-06T19:46:37.153Z,38.80
2022-09-06T19:49:08.342Z,38.90
2022-09-06T19:51:36.830Z,39.00
2022-09-06T19:54:04.624Z,39.00
2022-09-06T19:56:34.340Z,39.00
2022-09-06T19:59:08.127Z,39.20
2022-09-06T20:01:37.760Z,39.20
2022-09-06T20:04:07.963Z,39.10
2022-09-06T20:06:35.780Z,39.10
2022-09-06T20:09:06.790Z,39.00
2022-09-06T20:11:35.934Z,39.00
2022-09-06T20:14:03.626Z,39.10
2022-09-06T20:16:30.932Z,39.10
2022-09-06T20:18:59.470Z,39.20
2022-09-06T20:21:28.271Z,39.20
2022-09-06T20:23:58.006Z,39.20
2022-09-06T20:26:27.367Z,39.30
2022-09-06T20:28:59.552Z,39.20
2022-09-06T20:31:29.147Z,39.20
2022-09-06T20:33:56.665Z,39.20
2022-09-06T20:36:25.177Z,39.20
2022-09-06T20:38:52.434Z,39.20
2022-09-06T20:41:23.813Z,39.10
2022-09-06T20:43:56.641Z,39.20
2022-09-06T20:46:26.638Z,39.20
2022-09-06T20:48:55.924Z,39.20
2022-09-06T20:51:24.863Z,39.20
2022-09-06T20:53:55.190Z,39.20
2022-09-06T20:56:26.169Z,39.30
2022-09-06T20:58:56.375Z,39.40
2022-09-06T21:01:29.114Z,39.40
2022-09-06T21:03:59.339Z,39.30
2022-09-06T21:06:29.718Z,39.30
2022-09-06T21:08:57.989Z,39.30
2022-09-06T21:11:25.458Z,39.40
2022-09-06T21:13:58.258Z,39.40
2022-09-06T21:16:29.130Z,39.30
2022-09-06T21:19:03.570Z,39.40
2022-09-06T21:21:34.373Z,39.50
2022-09-06T21:24:03.787Z,39.40
2022-09-06T21:26:31.111Z,39.30
2022-09-06T21:28:58.485Z,39.30
2022-09-06T21:31:31.301Z,39.40
2022-09-06T21:34:02.807Z,39.30
2022-09-06T21:36:34.021Z,39.50
2022-09-06T21:39:04.331Z,39.50
2022-09-06T21:41:34.383Z,39.50
2022-09-06T21:44:02.981Z,39.50
2022-09-06T21:46:34.679Z,39.40
2022-09-06T21:49:13.563Z,39.50
2022-09-06T21:51:41.674Z,39.60
2022-09-06T21:54:09.067Z,39.40
2022-09-06T21:56:38.262Z,39.40
2022-09-06T21:59:06.281Z,39.50
2022-09-06T22:01:35.891Z,39.50
2022-09-06T22:04:04.052Z,39.60
2022-09-06T22:06:32.762Z,39.50
2022-09-06T22:09:03.082Z,39.50
2022-09-06T22:11:34.137Z,39.60
2022-09-06T22:14:05.172Z,39.50
2022-09-06T22:16:34.718Z,39.40
2022-09-06T22:19:04.809Z,39.40
2022-09-06T22:21:33.051Z,39.30
2022-09-06T22:24:04.273Z,39.40
2022-09-06T22:26:35.105Z,39.60
2022-09-06T22:29:05.380Z,39.60
2022-09-06T22:31:34.350Z,39.60
2022-09-06T22:34:01.737Z,39.50
2022-09-06T22:36:29.015Z,39.50
2022-09-06T22:38:57.626Z,39.50
2022-09-06T22:41:30.762Z,39.50
2022-09-06T22:44:01.120Z,39.60
2022-09-06T22:46:28.907Z,39.60
2022-09-06T22:48:56.076Z,39.60
2022-09-06T22:51:23.288Z,39.70
2022-09-06T22:53:50.917Z,39.80
2022-09-06T22:56:17.936Z,39.70
2022-09-06T22:58:44.933Z,39.50
2022-09-06T23:01:15.565Z,39.60
2022-09-06T23:03:44.094Z,40.30
2022-09-06T23:06:11.271Z,39.70
2022-09-06T23:08:40.094Z,39.70
2022-09-06T23:11:11.775Z,39.70
2022-09-06T23:13:43.384Z,39.80
2022-09-06T23:16:15.706Z,39.80
2022-09-06T23:18:42.680Z,39.90
2022-09-06T23:21:17.093Z,39.80
2022-09-06T23:23:44.439Z,40.00
2022-09-06T23:26:24.461Z,40.00
2022-09-06T23:28:56.344Z,40.10
2022-09-06T23:31:27.002Z,40.10
2022-09-06T23:33:57.153Z,40.20
2022-09-06T23:36:24.563Z,40.30
2022-09-06T23:38:52.231Z,40.30
2022-09-06T23:41:19.673Z,40.40
2022-09-06T23:43:46.550Z,40.50
2022-09-06T23:46:15.040Z,40.60
2022-09-06T23:48:43.227Z,40.60
2022-09-06T23:51:11.071Z,40.70
2022-09-06T23:53:39.623Z,40.90
2022-09-06T23:56:07.001Z,40.90
2022-09-06T23:58:34.728Z,41.10
